createdAt,value
2022-12-18T00:03:38.067Z,59.51
2022-12-18T00:08:32.800Z,59.43
2022-12-18T00:13:26.319Z,59.50
2022-12-18T00:18:21.862Z,59.45
2022-12-18T00:23:15.266Z,59.53
2022-12-18T00:28:08.788Z,59.51
2022-12-18T00:33:02.638Z,59.74
2022-12-18T00:37:56.341Z,59.73
2022-12-18T00:42:58.707Z,59.80
2022-12-18T00:47:51.325Z,59.97
2022-12-18T00:52:45.057Z,59.74
2022-12-18T00:57:38.072Z,60.00
2022-12-18T01:02:32.117Z,60.12
2022-12-18T01:07:24.933Z,59.96
2022-12-18T01:12:18.205Z,60.16
2022-12-18T01:17:11.154Z,59.98
2022-12-18T01:22:04.733Z,60.12
2022-12-18T01:26:58.649Z,60.28
2022-12-18T01:31:51.166Z,59.98
2022-12-18T01:36:45.759Z,60.14
2022-12-18T01:41:58.566Z,60.03
2022-12-18T01:46:52.743Z,60.15
2022-12-18T01:51:46.667Z,60.38
2022-12-18T01:56:40.040Z,60.16
2022-12-18T02:01:34.478Z,60.32
2022-12-18T02:06:39.526Z,60.24
2022-12-18T02:11:48.214Z,60.06
2022-12-18T02:16:57.905Z,60.17
2022-12-18T02:21:58.883Z,60.19
2022-12-18T02:26:55.366Z,59.98
2022-12-18T02:31:56.643Z,60.12
2022-12-18T02:36:53.383Z,60.25
2022-12-18T02:41:47.056Z,60.07
2022-12-18T02:46:48.234Z,60.02
2022-12-18T02:52:02.558Z,60.02
2022-12-18T02:57:05.610Z,59.98
2022-12-18T03:02:26.318Z,59.93
2022-12-18T03:07:27.159Z,59.93
2022-12-18T03:12:41.435Z,59.97
2022-12-18T03:17:36.804Z,59.82
2022-12-18T03:22:33.426Z,60.02
2022-12-18T03:27:34.727Z,59.86
2022-12-18T03:32:34.819Z,59.83
2022-12-18T03:38:07.929Z,59.84
2022-12-18T03:43:40.755Z,59.75
2022-12-18T03:48:43.320Z,59.59
2022-12-18T03:53:45.030Z,59.74
2022-12-18T03:58:59.497Z,59.86
2022-12-18T04:03:56.462Z,59.72
2022-12-18T04:08:50.662Z,59.57
2022-12-18T04:13:47.814Z,59.65
2022-12-18T04:18:46.442Z,59.57
2022-12-18T04:23:41.716Z,59.58
2022-12-18T04:28:35.892Z,59.40
2022-12-18T04:33:30.041Z,59.26
2022-12-18T04:38:24.443Z,59.38
2022-12-18T04:43:25.348Z,59.23
2022-12-18T04:48:19.189Z,59.25
2022-12-18T04:53:12.498Z,59.23
2022-12-18T04:58:05.791Z,59.19
2022-12-18T05:02:59.794Z,59.04
2022-12-18T05:07:53.472Z,59.14
2022-12-18T05:13:01.606Z,59.05
2022-12-18T05:17:56.039Z,59.19
2022-12-18T05:22:50.103Z,59.11
2022-12-18T05:27:43.204Z,58.93
2022-12-18T05:32:35.928Z,58.96
2022-12-18T05:37:29.980Z,59.04
2022-12-18T05:42:22.706Z,59.01
2022-12-18T05:47:15.526Z,58.87
2022-12-18T05:52:08.190Z,58.66
2022-12-18T05:57:01.703Z,58.91
2022-12-18T06:01:54.760Z,58.90
2022-12-18T06:06:49.126Z,58.47
2022-12-18T06:11:42.567Z,58.67
2022-12-18T06:16:35.341Z,58.62
2022-12-18T06:21:29.355Z,58.34
2022-12-18T06:26:27.841Z,57.94
2022-12-18T06:31:22.101Z,57.88
2022-12-18T06:36:17.223Z,57.65
2022-12-18T06:41:15.373Z,57.68
2022-12-18T06:46:08.482Z,57.70
2022-12-18T06:51:02.046Z,57.56
2022-12-18T06:55:54.165Z,57.37
2022-12-18T07:00:49.440Z,56.83
2022-12-18T07:05:42.453Z,55.99
2022-12-18T07:10:46.289Z,53.37
2022-12-18T07:15:41.853Z,52.92
2022-12-18T07:20:36.338Z,51.98
2022-12-18T07:25:29.906Z,50.38
2022-12-18T07:30:24.050Z,51.27
2022-12-18T07:35:23.357Z,52.04
2022-12-18T07:40:18.150Z,51.98
2022-12-18T07:45:12.098Z,52.78
2022-12-18T07:50:05.799Z,53.00
2022-12-18T07:55:00.173Z,52.96
2022-12-18T07:59:52.904Z,52.69
2022-12-18T08:04:48.481Z,52.28
2022-12-18T08:09:43.055Z,51.83
2022-12-18T08:14:36.282Z,51.98
2022-12-18T08:19:29.822Z,51.66
2022-12-18T08:24:23.446Z,51.91
2022-12-18T08:29:21.445Z,51.81
2022-12-18T08:34:15.046Z,51.57
2022-12-18T08:39:09.316Z,51.66
2022-12-18T08:44:22.027Z,51.45
2022-12-18T08:49:15.723Z,51.22
2022-12-18T08:54:08.733Z,51.07
2022-12-18T08:59:01.831Z,50.82
2022-12-18T09:03:54.628Z,50.98
2022-12-18T09:08:47.050Z,50.80
2022-12-18T09:13:41.911Z,50.73
2022-12-18T09:18:37.222Z,50.45
2022-12-18T09:23:30.625Z,50.73
2022-12-18T09:28:24.242Z,50.05
2022-12-18T09:33:18.539Z,50.10
2022-12-18T09:38:14.401Z,49.71
2022-12-18T09:43:11.848Z,43.41
2022-12-18T09:48:06.746Z,48.54
2022-12-18T09:53:07.657Z,48.96
2022-12-18T09:58:16.124Z,48.76
2022-12-18T10:03:14.792Z,49.23
2022-12-18T10:08:33.377Z,48.25
2022-12-18T10:13:31.297Z,48.28
2022-12-18T10:18:53.519Z,48.36
2022-12-18T10:24:30.241Z,47.72
2022-12-18T10:29:23.896Z,48.04
2022-12-18T10:34:16.614Z,48.12
2022-12-18T10:39:35.869Z,47.73
2022-12-18T10:44:29.547Z,49.04
2022-12-18T10:49:28.910Z,49.81
2022-12-18T10:54:27.098Z,49.97
2022-12-18T10:59:20.534Z,50.15
2022-12-18T11:04:19.702Z,50.12
2022-12-18T11:09:24.677Z,49.74
2022-12-18T11:14:46.924Z,50.56
2022-12-18T11:19:42.653Z,50.36
2022-12-18T11:24:37.317Z,49.99
2022-12-18T11:29:33.257Z,49.92
2022-12-18T11:34:33.319Z,49.83
2022-12-18T11:40:05.091Z,48.60
2022-12-18T11:45:12.999Z,48.81
2022-12-18T11:50:34.172Z,49.85
2022-12-18T11:55:51.909Z,50.20
2022-12-18T12:00:52.659Z,50.68
2022-12-18T12:06:09.511Z,50.48
2022-12-18T12:11:04.922Z,50.66
2022-12-18T12:16:13.762Z,50.18
2022-12-18T12:21:24.288Z,49.12
2022-12-18T12:26:29.862Z,48.53
2022-12-18T12:31:40.321Z,48.17
2022-12-18T12:37:04.042Z,47.47
2022-12-18T12:42:15.823Z,46.98
2022-12-18T12:47:31.743Z,46.74
2022-12-18T12:53:03.842Z,47.34
2022-12-18T12:58:16.546Z,48.42
2022-12-18T13:03:17.146Z,48.93
2022-12-18T13:08:33.246Z,48.75
2022-12-18T13:13:52.311Z,48.88
2022-12-18T13:18:51.972Z,49.13
2022-12-18T13:23:46.259Z,49.10
2022-12-18T13:28:49.120Z,49.74
2022-12-18T13:34:24.016Z,50.65
2022-12-18T13:39:21.223Z,51.68
2022-12-18T13:44:50.325Z,51.84
2022-12-18T13:49:45.681Z,50.62
2022-12-18T13:54:42.122Z,51.59
2022-12-18T13:59:40.391Z,52.82
2022-12-18T14:04:37.994Z,53.22
2022-12-18T14:09:32.564Z,54.05
2022-12-18T14:14:32.378Z,54.90
2022-12-18T14:19:27.031Z,54.84
2022-12-18T14:24:23.463Z,55.66
2022-12-18T14:29:28.109Z,55.61
2022-12-18T14:34:27.726Z,55.71
2022-12-18T14:39:20.329Z,55.96
2022-12-18T14:44:15.326Z,55.64
2022-12-18T14:49:28.394Z,56.15
2022-12-18T14:54:22.169Z,56.05
2022-12-18T14:59:24.093Z,56.04
2022-12-18T15:04:36.521Z,56.47
2022-12-18T15:09:30.106Z,56.40
2022-12-18T15:14:38.560Z,56.63
2022-12-18T15:19:39.631Z,56.90
2022-12-18T15:24:34.374Z,56.96
2022-12-18T15:29:28.084Z,56.96
2022-12-18T15:34:24.360Z,57.57
2022-12-18T15:39:17.845Z,57.60
2022-12-18T15:44:37.651Z,58.07
2022-12-18T15:49:31.202Z,58.33
2022-12-18T15:54:44.361Z,58.37
2022-12-18T15:59:37.709Z,57.94
2022-12-18T16:04:31.625Z,57.81
2022-12-18T16:09:26.652Z,57.59
2022-12-18T16:14:23.431Z,56.90
2022-12-18T16:19:17.256Z,56.94
2022-12-18T16:24:21.013Z,56.55
2022-12-18T16:29:14.929Z,56.63
2022-12-18T16:34:35.223Z,56.62
2022-12-18T16:39:28.825Z,56.35
2022-12-18T16:44:22.054Z,55.88
2022-12-18T16:49:20.674Z,55.60
2022-12-18T16:54:18.867Z,55.48
2022-12-18T16:59:13.428Z,55.50
2022-12-18T17:04:07.227Z,55.62
2022-12-18T17:09:03.464Z,55.88
2022-12-18T17:13:55.983Z,56.57
2022-12-18T17:18:51.090Z,57.11
2022-12-18T17:23:46.148Z,57.25
2022-12-18T17:28:40.146Z,57.47
2022-12-18T17:33:33.383Z,56.18
2022-12-18T17:38:26.581Z,56.57
2022-12-18T17:43:20.907Z,56.69
2022-12-18T17:48:16.806Z,56.96
2022-12-18T17:53:11.078Z,56.25
2022-12-18T17:58:05.518Z,53.61
2022-12-18T18:02:59.430Z,52.04
2022-12-18T18:07:52.650Z,50.94
2022-12-18T18:13:04.567Z,50.96
2022-12-18T18:17:58.374Z,49.79
2022-12-18T18:22:51.972Z,49.36
2022-12-18T18:27:46.117Z,51.15
2022-12-18T18:32:42.260Z,53.05
2022-12-18T18:37:36.716Z,53.96
2022-12-18T18:42:29.691Z,55.09
2022-12-18T18:47:22.326Z,55.86
2022-12-18T18:52:14.791Z,56.36
2022-12-18T18:57:20.445Z,56.32
2022-12-18T19:02:15.496Z,55.91
2022-12-18T19:07:09.577Z,55.12
2022-12-18T19:12:21.283Z,54.50
2022-12-18T19:17:15.762Z,54.78
2022-12-18T19:22:11.122Z,55.23
2022-12-18T19:27:04.449Z,55.87
2022-12-18T19:31:57.646Z,55.97
2022-12-18T19:36:56.482Z,56.23
2022-12-18T19:41:52.572Z,56.30
2022-12-18T19:46:47.072Z,56.38
2022-12-18T19:51:45.588Z,56.66
2022-12-18T19:56:38.239Z,56.72
2022-12-18T20:01:31.436Z,56.98
2022-12-18T20:06:36.547Z,56.91
2022-12-18T20:11:30.730Z,57.17
2022-12-18T20:16:23.748Z,57.22
2022-12-18T20:21:17.205Z,57.54
2022-12-18T20:26:10.601Z,57.82
2022-12-18T20:31:13.225Z,57.55
2022-12-18T20:36:15.289Z,57.64
2022-12-18T20:41:12.081Z,57.80
2022-12-18T20:46:08.087Z,58.01
2022-12-18T20:51:02.619Z,57.93
2022-12-18T20:55:58.024Z,57.96
2022-12-18T21:00:51.297Z,57.97
2022-12-18T21:05:44.814Z,58.13
2022-12-18T21:10:39.206Z,57.98
2022-12-18T21:15:33.139Z,57.98
2022-12-18T21:20:26.569Z,57.90
2022-12-18T21:25:19.534Z,57.93
2022-12-18T21:30:15.351Z,57.98
2022-12-18T21:35:09.694Z,58.03
2022-12-18T21:40:02.643Z,58.36
2022-12-18T21:44:56.775Z,58.63
2022-12-18T21:49:50.866Z,58.57
2022-12-18T21:54:44.829Z,58.92
2022-12-18T21:59:40.223Z,58.88
2022-12-18T22:04:33.987Z,59.26
2022-12-18T22:09:27.637Z,59.07
2022-12-18T22:14:21.745Z,59.07
2022-12-18T22:19:15.814Z,59.32
2022-12-18T22:24:13.801Z,59.16
2022-12-18T22:29:27.088Z,59.16
2022-12-18T22:34:23.251Z,58.93
2022-12-18T22:39:19.216Z,59.09
2022-12-18T22:44:13.188Z,59.06
2022-12-18T22:49:13.709Z,59.06
2022-12-18T22:54:06.829Z,59.14
2022-12-18T22:59:01.319Z,58.99
2022-12-18T23:03:54.719Z,59.42
2022-12-18T23:08:52.975Z,59.06
2022-12-18T23:13:49.311Z,59.24
2022-12-18T23:18:42.543Z,59.21
2022-12-18T23:23:37.196Z,59.24
2022-12-18T23:28:31.981Z,59.32
2022-12-18T23:33:25.648Z,59.27
2022-12-18T23:38:19.942Z,59.06
2022-12-18T23:43:13.103Z,59.13
2022-12-18T23:48:06.502Z,59.16
2022-12-18T23:53:04.848Z,59.15
2022-12-18T23:57:59.717Z,59.16
